Time;durP1;ratioP1;P1;durP2;ratioP2;P2;SDS_P1;SDS_P2;PMS_P1;PMS_P2;Temp;Humidity;BMP_temperature;BMP_pressure;BME280_temperature;BME280_humidity;BME280_pressure;Samples;Min_cycle;Max_cycle;Signal;HPM_P1;HPM_P2
2021/07/08 00:01:31;;;;;;;;;;;21.00;99.90;;;;;;5081706;28;19955;-76
2021/07/08 00:03:58;;;;;;;;;;;21.10;99.90;;;;;;5086592;28;20342;-77
2021/07/08 00:06:25;;;;;;;;;;;21.00;99.90;;;;;;5090567;28;19928;-77
2021/07/08 00:08:52;;;;;;;;;;;21.00;99.90;;;;;;5084841;28;19927;-76
2021/07/08 00:11:19;;;;;;;;;;;21.10;99.90;;;;;;5089560;28;20276;-76
2021/07/08 00:13:47;;;;;;;;;;;21.00;99.90;;;;;;5085361;28;20299;-76
2021/07/08 00:16:14;;;;;;;;;;;21.00;99.90;;;;;;5081676;28;19924;-77
2021/07/08 00:18:42;;;;;;;;;;;21.10;99.90;;;;;;5093023;28;19989;-78
2021/07/08 00:21:09;;;;;;;;;;;21.00;99.90;;;;;;5077867;28;20474;-76
2021/07/08 00:23:36;;;;;;;;;;;20.90;99.90;;;;;;5090675;28;19931;-77
2021/07/08 00:26:03;;;;;;;;;;;20.90;99.90;;;;;;5079058;28;19925;-77
2021/07/08 00:28:31;;;;;;;;;;;20.80;99.90;;;;;;5080840;28;19924;-77
2021/07/08 00:30:59;;;;;;;;;;;20.80;99.90;;;;;;5080423;28;19942;-78
2021/07/08 00:33:26;;;;;;;;;;;20.70;99.90;;;;;;5084857;28;19924;-77
2021/07/08 00:35:53;;;;;;;;;;;20.70;99.90;;;;;;5084272;28;19939;-77
2021/07/08 00:38:20;;;;;;;;;;;20.70;99.90;;;;;;5116439;27;20049;-77
2021/07/08 00:40:47;;;;;;;;;;;20.80;99.90;;;;;;5083665;28;19947;-77
2021/07/08 00:43:13;;;;;;;;;;;20.80;99.90;;;;;;5083660;28;19924;-77
2021/07/08 00:45:41;;;;;;;;;;;20.70;99.90;;;;;;5083334;28;19977;-77
2021/07/08 00:48:08;;;;;;;;;;;20.70;99.90;;;;;;5090430;28;20375;-77
2021/07/08 00:50:37;;;;;;;;;;;20.60;99.90;;;;;;5084798;28;19931;-78
2021/07/08 00:53:04;;;;;;;;;;;20.50;99.90;;;;;;5078243;28;19974;-77
2021/07/08 00:55:31;;;;;;;;;;;20.50;99.90;;;;;;5118333;27;19924;-78
2021/07/08 00:57:58;;;;;;;;;;;20.60;99.90;;;;;;5095584;27;20403;-77
2021/07/08 01:00:29;;;;;;;;;;;20.50;99.90;;;;;;5079580;28;19987;-77
2021/07/08 01:02:57;;;;;;;;;;;20.50;99.90;;;;;;5082241;28;19932;-77
2021/07/08 01:05:25;;;;;;;;;;;20.50;99.90;;;;;;5079765;28;19985;-77
2021/07/08 01:07:52;;;;;;;;;;;20.60;99.90;;;;;;5087887;28;19924;-77
2021/07/08 01:10:19;;;;;;;;;;;20.70;99.90;;;;;;5084168;28;20406;-77
2021/07/08 01:12:46;;;;;;;;;;;20.70;99.90;;;;;;5081547;28;19928;-77
2021/07/08 01:15:14;;;;;;;;;;;20.70;99.90;;;;;;5079315;28;19925;-77
2021/07/08 01:17:42;;;;;;;;;;;20.70;99.90;;;;;;5079773;28;20421;-77
2021/07/08 01:20:09;;;;;;;;;;;20.70;99.90;;;;;;5078734;28;19935;-77
2021/07/08 01:22:36;;;;;;;;;;;20.60;99.90;;;;;;5083689;28;19924;-77
2021/07/08 01:25:04;;;;;;;;;;;20.50;99.90;;;;;;5080318;28;19935;-78
2021/07/08 01:27:32;;;;;;;;;;;20.50;99.90;;;;;;5075554;28;19936;-77
2021/07/08 01:29:59;;;;;;;;;;;20.50;99.90;;;;;;5076438;28;19928;-77
2021/07/08 01:32:25;;;;;;;;;;;20.50;99.90;;;;;;5077227;28;19947;-78
2021/07/08 01:34:52;;;;;;;;;;;20.50;99.90;;;;;;5079273;28;19931;-77
2021/07/08 01:37:19;;;;;;;;;;;20.50;99.90;;;;;;5080185;28;19924;-76
2021/07/08 01:39:47;;;;;;;;;;;20.50;99.90;;;;;;5081647;28;19924;-77
2021/07/08 01:42:13;;;;;;;;;;;20.50;99.90;;;;;;5086076;28;20322;-77
2021/07/08 01:44:40;;;;;;;;;;;20.50;99.90;;;;;;5082998;28;20467;-77
2021/07/08 01:47:07;;;;;;;;;;;20.40;99.90;;;;;;5084437;28;19924;-77
2021/07/08 01:49:34;;;;;;;;;;;20.40;99.90;;;;;;5086345;28;19984;-83
2021/07/08 01:52:02;;;;;;;;;;;20.50;99.90;;;;;;5084188;28;19927;-84
2021/07/08 01:54:29;;;;;;;;;;;20.50;99.90;;;;;;5082227;28;19925;-83
2021/07/08 01:56:56;;;;;;;;;;;20.50;99.90;;;;;;5085960;28;19924;-83
2021/07/08 01:59:23;;;;;;;;;;;20.50;99.90;;;;;;5085184;28;20387;-84
2021/07/08 02:01:50;;;;;;;;;;;20.40;99.90;;;;;;5082530;28;19931;-84
2021/07/08 02:04:17;;;;;;;;;;;20.40;99.90;;;;;;5085333;28;19925;-84
2021/07/08 02:06:44;;;;;;;;;;;20.40;99.90;;;;;;5089604;28;19977;-84
2021/07/08 02:09:12;;;;;;;;;;;20.40;99.90;;;;;;5082593;28;19945;-84
2021/07/08 02:11:39;;;;;;;;;;;20.30;99.90;;;;;;5085550;28;19928;-81
2021/07/08 02:14:06;;;;;;;;;;;20.20;99.90;;;;;;5113912;28;20394;-83
2021/07/08 02:16:34;;;;;;;;;;;20.20;99.90;;;;;;5083536;28;19947;-83
2021/07/08 02:19:03;;;;;;;;;;;20.30;99.90;;;;;;5083980;28;19930;-84
2021/07/08 02:21:29;;;;;;;;;;;20.40;99.90;;;;;;5086049;28;20001;-83
2021/07/08 02:23:58;;;;;;;;;;;20.40;99.90;;;;;;5092750;28;19928;-83
2021/07/08 02:26:24;;;;;;;;;;;20.40;99.90;;;;;;5082522;28;19925;-83
2021/07/08 02:28:52;;;;;;;;;;;20.40;99.90;;;;;;5086907;28;19932;-83
2021/07/08 02:31:18;;;;;;;;;;;20.30;99.90;;;;;;5092502;28;19924;-83
2021/07/08 02:33:46;;;;;;;;;;;20.30;99.90;;;;;;5077035;28;19924;-83
2021/07/08 02:36:13;;;;;;;;;;;20.20;99.90;;;;;;5087258;28;19928;-83
2021/07/08 02:38:40;;;;;;;;;;;20.20;99.90;;;;;;5113001;27;19932;-84
2021/07/08 02:41:08;;;;;;;;;;;20.20;99.90;;;;;;5099647;28;19931;-83
2021/07/08 02:43:35;;;;;;;;;;;20.10;99.90;;;;;;5086352;28;19968;-85
2021/07/08 02:46:02;;;;;;;;;;;20.10;99.90;;;;;;5092000;28;19924;-84
2021/07/08 02:48:29;;;;;;;;;;;19.90;99.90;;;;;;5089924;28;19925;-83
2021/07/08 02:50:56;;;;;;;;;;;19.80;99.90;;;;;;5093468;28;19928;-84
2021/07/08 02:53:24;;;;;;;;;;;20.00;99.90;;;;;;5086755;28;19935;-84
2021/07/08 02:55:51;;;;;;;;;;;20.10;99.90;;;;;;5087166;28;20425;-85
2021/07/08 02:58:18;;;;;;;;;;;20.10;99.90;;;;;;5088275;28;19931;-83
2021/07/08 03:00:46;;;;;;;;;;;20.10;99.90;;;;;;5080757;28;19925;-84
2021/07/08 03:03:13;;;;;;;;;;;20.20;99.90;;;;;;5088474;28;20271;-84
2021/07/08 03:05:40;;;;;;;;;;;20.20;99.90;;;;;;5086532;28;19925;-84
2021/07/08 03:08:07;;;;;;;;;;;20.20;99.90;;;;;;5091320;28;19939;-83
2021/07/08 03:10:36;;;;;;;;;;;20.20;99.90;;;;;;5087793;28;19933;-85
2021/07/08 03:13:04;;;;;;;;;;;20.10;99.90;;;;;;5081616;28;19939;-83
2021/07/08 03:15:31;;;;;;;;;;;20.10;99.90;;;;;;5079340;28;19925;-84
2021/07/08 03:17:58;;;;;;;;;;;20.10;99.90;;;;;;5089668;28;20035;-84
2021/07/08 03:20:26;;;;;;;;;;;20.10;99.90;;;;;;5085974;28;19932;-84
2021/07/08 03:22:53;;;;;;;;;;;20.10;99.90;;;;;;5086451;28;19928;-84
2021/07/08 03:25:21;;;;;;;;;;;20.10;99.90;;;;;;5089467;28;20006;-84
2021/07/08 03:27:48;;;;;;;;;;;20.10;99.90;;;;;;5086624;28;19924;-82
2021/07/08 03:30:18;;;;;;;;;;;20.10;99.90;;;;;;5086101;28;20461;-84
2021/07/08 03:32:46;;;;;;;;;;;20.10;99.90;;;;;;5090382;28;19908;-84
2021/07/08 03:35:17;;;;;;;;;;;20.00;99.90;;;;;;5087600;28;19972;-84
2021/07/08 03:37:44;;;;;;;;;;;20.00;99.90;;;;;;5089019;28;19924;-85
2021/07/08 03:40:12;;;;;;;;;;;20.00;99.90;;;;;;5084000;28;19928;-84
2021/07/08 03:42:40;;;;;;;;;;;19.90;99.90;;;;;;5085176;28;19951;-84
2021/07/08 03:45:08;;;;;;;;;;;19.90;99.90;;;;;;5090019;28;19930;-84
2021/07/08 03:47:35;;;;;;;;;;;19.90;99.90;;;;;;5088882;28;20337;-84
2021/07/08 03:50:03;;;;;;;;;;;20.10;99.90;;;;;;5090452;28;19951;-84
2021/07/08 03:52:30;;;;;;;;;;;20.10;99.90;;;;;;5083887;28;19932;-84
2021/07/08 03:54:57;;;;;;;;;;;20.20;99.90;;;;;;5085720;28;19924;-84
2021/07/08 03:57:24;;;;;;;;;;;20.10;99.90;;;;;;5091282;28;19931;-84
2021/07/08 03:59:51;;;;;;;;;;;20.20;99.90;;;;;;5087337;28;19931;-82
2021/07/08 04:02:17;;;;;;;;;;;20.20;99.90;;;;;;5089063;28;19935;-84
2021/07/08 04:04:44;;;;;;;;;;;20.10;99.90;;;;;;5083693;28;20285;-84
2021/07/08 04:07:11;;;;;;;;;;;20.00;99.90;;;;;;5090569;28;19924;-81
2021/07/08 04:09:38;;;;;;;;;;;19.80;99.90;;;;;;5094640;28;19932;-84
2021/07/08 04:12:05;;;;;;;;;;;19.70;99.90;;;;;;5087909;28;19925;-85
2021/07/08 04:14:32;;;;;;;;;;;19.70;99.90;;;;;;5085508;28;19946;-84
2021/07/08 04:16:59;;;;;;;;;;;19.60;99.90;;;;;;5083768;28;20033;-84
2021/07/08 04:19:27;;;;;;;;;;;19.60;99.90;;;;;;5090540;28;19938;-84
2021/07/08 04:21:54;;;;;;;;;;;19.70;99.90;;;;;;5083038;28;19909;-83
2021/07/08 04:24:20;;;;;;;;;;;19.60;99.90;;;;;;5087977;28;19924;-84
2021/07/08 04:26:47;;;;;;;;;;;19.40;99.90;;;;;;5084306;28;19932;-84
2021/07/08 04:29:14;;;;;;;;;;;19.50;99.90;;;;;;5088353;28;19931;-84
2021/07/08 04:31:42;;;;;;;;;;;19.50;99.90;;;;;;5085934;28;19930;-84
2021/07/08 04:34:08;;;;;;;;;;;19.70;99.90;;;;;;5090901;28;20318;-85
2021/07/08 04:36:35;;;;;;;;;;;19.70;99.90;;;;;;5092121;28;19924;-84
2021/07/08 04:39:03;;;;;;;;;;;19.70;99.90;;;;;;5083514;28;19947;-85
2021/07/08 04:41:30;;;;;;;;;;;19.60;99.90;;;;;;5084339;28;19925;-84
2021/07/08 04:43:58;;;;;;;;;;;19.60;99.90;;;;;;5089601;28;19970;-84
2021/07/08 04:46:26;;;;;;;;;;;19.50;99.90;;;;;;5127640;27;19924;-84
2021/07/08 04:48:56;;;;;;;;;;;19.60;99.90;;;;;;5087650;28;20191;-84
2021/07/08 04:51:23;;;;;;;;;;;19.60;99.90;;;;;;5088070;28;19928;-85
2021/07/08 04:53:51;;;;;;;;;;;19.40;99.90;;;;;;5086724;28;19994;-85
2021/07/08 04:56:18;;;;;;;;;;;19.50;99.90;;;;;;5107713;27;19928;-83
2021/07/08 04:58:45;;;;;;;;;;;19.60;99.90;;;;;;5085612;28;19924;-84
2021/07/08 05:01:13;;;;;;;;;;;19.50;99.90;;;;;;5079898;28;19928;-84
2021/07/08 05:03:40;;;;;;;;;;;19.50;99.90;;;;;;5081851;28;20018;-83
2021/07/08 05:06:07;;;;;;;;;;;19.40;99.90;;;;;;5089082;28;19924;-85
2021/07/08 05:08:34;;;;;;;;;;;19.50;99.90;;;;;;5090253;28;20018;-85
2021/07/08 05:11:01;;;;;;;;;;;19.50;99.90;;;;;;5084508;28;19936;-85
2021/07/08 05:13:27;;;;;;;;;;;19.40;99.90;;;;;;5082621;28;19924;-84
2021/07/08 05:15:54;;;;;;;;;;;19.50;99.90;;;;;;5086452;28;19928;-85
2021/07/08 05:18:21;;;;;;;;;;;19.60;99.90;;;;;;5085954;28;19974;-84
2021/07/08 05:20:49;;;;;;;;;;;19.70;99.90;;;;;;5088669;28;19931;-85
2021/07/08 05:23:21;;;;;;;;;;;19.70;99.90;;;;;;5081599;28;19959;-83
2021/07/08 05:25:49;;;;;;;;;;;19.90;99.90;;;;;;5086775;28;19931;-86
2021/07/08 05:28:16;;;;;;;;;;;20.00;99.90;;;;;;5083916;28;19924;-85
2021/07/08 05:30:43;;;;;;;;;;;19.90;99.90;;;;;;5115942;27;20383;-84
2021/07/08 05:33:18;;;;;;;;;;;20.10;99.90;;;;;;5089956;28;20534;-85
2021/07/08 05:35:45;;;;;;;;;;;20.00;99.90;;;;;;5085525;28;20350;-85
2021/07/08 05:38:16;;;;;;;;;;;20.10;99.90;;;;;;5081597;28;19924;-90
2021/07/08 05:40:43;;;;;;;;;;;20.10;99.90;;;;;;5095765;28;19928;-84
2021/07/08 05:43:23;;;;;;;;;;;20.10;99.90;;;;;;5095044;28;19977;-85
2021/07/08 05:45:50;;;;;;;;;;;20.00;99.90;;;;;;5087666;28;19932;-87
2021/07/08 05:48:19;;;;;;;;;;;20.00;99.90;;;;;;5088077;28;19950;-86
2021/07/08 05:50:46;;;;;;;;;;;20.10;99.90;;;;;;5099699;28;19931;-87
2021/07/08 05:53:13;;;;;;;;;;;20.10;99.90;;;;;;5085766;28;19930;-86
2021/07/08 05:55:40;;;;;;;;;;;20.10;99.90;;;;;;5095135;28;19963;-85
2021/07/08 05:58:07;;;;;;;;;;;20.20;99.90;;;;;;5086170;28;19943;-87
2021/07/08 06:00:35;;;;;;;;;;;20.30;99.90;;;;;;5095764;28;19925;-88
2021/07/08 06:03:02;;;;;;;;;;;20.20;99.90;;;;;;5091465;28;19940;-86
2021/07/08 06:05:29;;;;;;;;;;;20.20;99.90;;;;;;5100754;28;19928;-78
2021/07/08 06:07:56;;;;;;;;;;;20.20;99.90;;;;;;5077379;28;19928;-77
2021/07/08 06:10:23;;;;;;;;;;;20.20;99.90;;;;;;5117617;28;20013;-79
2021/07/08 06:12:52;;;;;;;;;;;20.30;99.90;;;;;;5086307;28;19928;-79
2021/07/08 06:15:20;;;;;;;;;;;20.20;99.90;;;;;;5083197;28;20397;-79
2021/07/08 06:17:53;;;;;;;;;;;20.30;99.90;;;;;;5078433;28;20003;-77
2021/07/08 06:20:20;;;;;;;;;;;20.00;99.90;;;;;;5081299;28;19945;-79
2021/07/08 06:22:47;;;;;;;;;;;20.10;99.90;;;;;;5109494;27;19981;-79
2021/07/08 06:25:14;;;;;;;;;;;20.20;99.90;;;;;;5084676;28;19928;-79
2021/07/08 06:27:44;;;;;;;;;;;20.10;99.90;;;;;;5088454;28;19972;-79
2021/07/08 06:30:14;;;;;;;;;;;20.20;99.90;;;;;;5114062;27;19977;-77
2021/07/08 06:32:41;;;;;;;;;;;20.30;99.90;;;;;;5094024;28;20338;-79
2021/07/08 06:35:18;;;;;;;;;;;20.40;99.90;;;;;;5091337;28;19985;-76
2021/07/08 06:37:45;;;;;;;;;;;20.40;99.90;;;;;;5094728;28;20027;-78
2021/07/08 06:40:17;;;;;;;;;;;20.50;99.90;;;;;;5088064;28;19924;-78
2021/07/08 06:42:46;;;;;;;;;;;20.50;99.90;;;;;;5087927;28;19960;-81
2021/07/08 06:45:16;;;;;;;;;;;20.30;99.90;;;;;;5077906;28;19928;-78
2021/07/08 06:47:51;;;;;;;;;;;20.10;99.90;;;;;;5088230;28;19930;-79
2021/07/08 06:50:19;;;;;;;;;;;20.10;99.90;;;;;;5093139;28;19927;-86
2021/07/08 06:52:47;;;;;;;;;;;20.20;99.90;;;;;;5085492;28;21024;-84
2021/07/08 06:55:14;;;;;;;;;;;20.20;99.90;;;;;;5090388;28;19925;-88
2021/07/08 06:57:50;;;;;;;;;;;20.20;99.90;;;;;;5090239;28;20370;-87
2021/07/08 07:00:19;;;;;;;;;;;20.20;99.90;;;;;;5085846;28;19924;-86
2021/07/08 07:02:46;;;;;;;;;;;20.10;99.90;;;;;;5094907;28;20006;-87
2021/07/08 07:05:13;;;;;;;;;;;20.10;99.90;;;;;;5103336;28;19924;-85
2021/07/08 07:07:40;;;;;;;;;;;20.00;99.90;;;;;;5094868;28;19925;-85
2021/07/08 07:10:07;;;;;;;;;;;20.10;99.90;;;;;;5103750;28;19928;-84
2021/07/08 07:12:39;;;;;;;;;;;20.10;99.90;;;;;;5095626;28;20024;-85
2021/07/08 07:15:06;;;;;;;;;;;20.20;99.90;;;;;;5087168;28;19947;-83
2021/07/08 07:17:35;;;;;;;;;;;20.20;99.90;;;;;;5088695;28;20393;-82
2021/07/08 07:20:04;;;;;;;;;;;20.20;99.90;;;;;;5088291;28;20055;-82
2021/07/08 07:22:31;;;;;;;;;;;20.10;99.90;;;;;;5090782;28;20276;-81
2021/07/08 07:24:59;;;;;;;;;;;20.10;99.90;;;;;;5091191;28;20007;-83
2021/07/08 07:27:29;;;;;;;;;;;19.90;99.90;;;;;;5076811;28;19966;-83
2021/07/08 07:29:56;;;;;;;;;;;19.90;99.90;;;;;;5089672;28;19967;-84
2021/07/08 07:32:23;;;;;;;;;;;20.10;99.90;;;;;;5081269;28;19970;-82
2021/07/08 07:34:50;;;;;;;;;;;20.40;99.90;;;;;;5114100;27;19928;-83
2021/07/08 07:37:18;;;;;;;;;;;20.40;99.90;;;;;;5090158;28;19978;-83
2021/07/08 07:39:45;;;;;;;;;;;20.40;99.90;;;;;;5083500;28;19928;-84
2021/07/08 07:42:12;;;;;;;;;;;20.40;99.90;;;;;;5080880;28;20276;-84
2021/07/08 07:44:44;;;;;;;;;;;20.70;99.90;;;;;;5092258;28;19924;-83
2021/07/08 07:47:13;;;;;;;;;;;20.90;99.90;;;;;;5082165;28;19967;-83
2021/07/08 07:49:40;;;;;;;;;;;20.70;99.90;;;;;;5087273;28;19924;-84
2021/07/08 07:52:08;;;;;;;;;;;20.70;99.90;;;;;;5086901;28;20284;-83
2021/07/08 07:54:35;;;;;;;;;;;20.80;99.90;;;;;;5092525;28;19923;-84
2021/07/08 07:57:05;;;;;;;;;;;20.90;99.90;;;;;;5090190;28;19933;-85
2021/07/08 07:59:32;;;;;;;;;;;21.00;99.90;;;;;;5084943;28;19925;-83
2021/07/08 08:02:01;;;;;;;;;;;21.10;99.90;;;;;;5085857;28;19924;-84
2021/07/08 08:04:31;;;;;;;;;;;21.10;99.90;;;;;;5085886;28;19931;-85
2021/07/08 08:09:43;;;;;;;;;;;21.30;99.90;;;;;;5095890;28;19931;-85
2021/07/08 08:12:10;;;;;;;;;;;21.70;99.90;;;;;;5091243;28;19924;-83
2021/07/08 08:14:37;;;;;;;;;;;21.80;99.90;;;;;;5083096;28;19924;-84
2021/07/08 08:17:04;;;;;;;;;;;21.80;99.90;;;;;;5089310;28;19928;-81
2021/07/08 08:19:38;;;;;;;;;;;21.90;99.90;;;;;;5085439;28;20039;-84
2021/07/08 08:22:17;;;;;;;;;;;21.90;99.90;;;;;;5094575;28;19931;-84
2021/07/08 08:24:48;;;;;;;;;;;21.70;99.90;;;;;;5083914;28;19928;-82
2021/07/08 08:27:15;;;;;;;;;;;21.60;99.90;;;;;;5084365;28;19942;-81
2021/07/08 08:29:42;;;;;;;;;;;21.70;99.90;;;;;;5087696;28;19928;-83
2021/07/08 08:32:09;;;;;;;;;;;21.90;99.90;;;;;;5082050;28;19966;-83
2021/07/08 08:34:36;;;;;;;;;;;22.10;99.90;;;;;;5087564;28;19929;-82
2021/07/08 08:37:03;;;;;;;;;;;22.00;99.90;;;;;;5083999;28;19973;-80
2021/07/08 08:39:30;;;;;;;;;;;22.10;99.90;;;;;;5083068;28;19936;-76
2021/07/08 08:42:00;;;;;;;;;;;22.20;99.90;;;;;;5082467;28;19934;-79
2021/07/08 08:44:30;;;;;;;;;;;22.20;99.90;;;;;;5084584;28;19939;-78
2021/07/08 08:46:56;;;;;;;;;;;22.10;99.90;;;;;;5082226;28;20954;-79
2021/07/08 08:49:23;;;;;;;;;;;22.10;99.90;;;;;;5084619;28;19928;-80
2021/07/08 08:51:50;;;;;;;;;;;22.10;99.90;;;;;;5086810;28;19947;-80
2021/07/08 08:54:19;;;;;;;;;;;21.90;99.90;;;;;;5081395;28;19963;-79
2021/07/08 08:56:46;;;;;;;;;;;21.80;99.90;;;;;;5081774;28;19932;-77
2021/07/08 08:59:13;;;;;;;;;;;21.80;99.90;;;;;;5112729;27;19939;-80
2021/07/08 09:01:40;;;;;;;;;;;21.90;99.90;;;;;;5080648;28;19928;-78
2021/07/08 09:04:30;;;;;;;;;;;21.90;99.90;;;;;;5081040;28;19963;-78
2021/07/08 09:07:17;;;;;;;;;;;21.90;99.90;;;;;;5080984;28;19951;-77
2021/07/08 09:09:43;;;;;;;;;;;21.90;99.90;;;;;;5086009;28;19936;-76
2021/07/08 09:12:14;;;;;;;;;;;21.80;99.90;;;;;;5075333;28;19998;-76
2021/07/08 09:14:45;;;;;;;;;;;21.80;99.90;;;;;;5076501;28;19939;-76
2021/07/08 09:17:15;;;;;;;;;;;21.80;99.90;;;;;;5076349;28;19963;-75
2021/07/08 09:19:45;;;;;;;;;;;21.90;99.90;;;;;;5075570;28;19938;-75
2021/07/08 09:22:25;;;;;;;;;;;22.00;99.90;;;;;;5078501;28;19938;-74
2021/07/08 09:24:52;;;;;;;;;;;22.10;99.90;;;;;;5076045;28;19932;-70
2021/07/08 09:27:23;;;;;;;;;;;22.10;99.90;;;;;;5082248;28;20445;-71
2021/07/08 09:29:51;;;;;;;;;;;22.00;99.90;;;;;;5076511;28;19928;-69
2021/07/08 09:32:19;;;;;;;;;;;22.00;99.90;;;;;;5079596;28;20371;-71
2021/07/08 09:35:00;;;;;;;;;;;22.00;99.90;;;;;;5077051;28;19951;-71
2021/07/08 09:37:27;;;;;;;;;;;21.90;99.90;;;;;;5079196;28;19935;-70
2021/07/08 09:39:56;;;;;;;;;;;21.90;99.90;;;;;;5076772;28;20001;-71
2021/07/08 09:42:42;;;;;;;;;;;22.00;99.90;;;;;;5076998;28;19933;-72
2021/07/08 09:45:10;;;;;;;;;;;22.00;99.90;;;;;;5078353;28;19997;-70
2021/07/08 09:47:39;;;;;;;;;;;22.10;99.90;;;;;;5081035;28;19932;-71
2021/07/08 09:50:11;;;;;;;;;;;22.10;99.90;;;;;;5076252;28;20379;-67
2021/07/08 09:52:38;;;;;;;;;;;22.20;99.90;;;;;;5081513;28;19932;-69
2021/07/08 09:55:15;;;;;;;;;;;22.20;99.90;;;;;;5081090;28;19932;-68
2021/07/08 09:57:45;;;;;;;;;;;22.10;99.90;;;;;;5082374;28;20411;-69
2021/07/08 10:00:19;;;;;;;;;;;22.20;99.90;;;;;;5077771;28;22062;-72
2021/07/08 10:02:47;;;;;;;;;;;22.20;99.90;;;;;;5080423;28;19978;-71
2021/07/08 10:05:14;;;;;;;;;;;22.30;99.90;;;;;;5082183;28;19942;-71
2021/07/08 10:07:41;;;;;;;;;;;22.20;99.90;;;;;;5083316;28;19936;-73
2021/07/08 10:10:08;;;;;;;;;;;22.00;99.90;;;;;;5079330;28;21362;-71
2021/07/08 10:12:36;;;;;;;;;;;21.90;99.90;;;;;;5078847;28;19978;-71
2021/07/08 10:15:05;;;;;;;;;;;22.20;99.90;;;;;;5080212;28;19939;-70
2021/07/08 10:17:33;;;;;;;;;;;22.30;99.90;;;;;;5115835;27;19932;-71
2021/07/08 10:20:01;;;;;;;;;;;22.30;99.90;;;;;;5080869;28;19932;-71
2021/07/08 10:22:29;;;;;;;;;;;22.40;99.90;;;;;;5082002;28;19932;-71
2021/07/08 10:24:56;;;;;;;;;;;22.30;99.90;;;;;;5078034;28;19932;-71
2021/07/08 10:27:24;;;;;;;;;;;22.20;99.90;;;;;;5079692;28;19981;-71
2021/07/08 10:29:52;;;;;;;;;;;22.10;99.90;;;;;;5077150;28;19932;-71
2021/07/08 10:32:20;;;;;;;;;;;22.10;99.90;;;;;;5077764;28;19955;-71
2021/07/08 10:34:48;;;;;;;;;;;22.00;99.90;;;;;;5079626;27;19963;-71
2021/07/08 10:40:27;;;;;;;;;;;21.80;99.90;;;;;;5063614;28;19936;-71
2021/07/08 10:42:54;;;;;;;;;;;21.60;99.90;;;;;;5075618;28;19981;-70
2021/07/08 10:45:36;;;;;;;;;;;21.70;99.90;;;;;;5076186;28;19950;-74
2021/07/08 10:48:11;;;;;;;;;;;21.40;99.90;;;;;;5079707;28;19934;-72
2021/07/08 10:57:37;;;;;;;;;;;21.90;99.90;;;;;;5072067;28;20311;-68
2021/07/08 11:00:23;;;;;;;;;;;21.80;99.90;;;;;;5068595;28;19978;-68
2021/07/08 11:02:51;;;;;;;;;;;21.50;99.90;;;;;;5080015;28;19971;-68
2021/07/08 11:05:44;;;;;;;;;;;21.40;99.90;;;;;;5077723;28;19993;-68
2021/07/08 11:08:11;;;;;;;;;;;21.50;99.90;;;;;;5076761;28;20035;-67
2021/07/08 11:10:39;;;;;;;;;;;21.60;99.90;;;;;;5077702;28;20338;-68
2021/07/08 11:13:38;;;;;;;;;;;21.60;99.90;;;;;;5078005;28;20089;-68
2021/07/08 11:16:04;;;;;;;;;;;21.60;99.90;;;;;;5058600;28;19940;-68
2021/07/08 11:18:32;;;;;;;;;;;21.40;99.90;;;;;;5081001;28;20014;-67
2021/07/08 11:20:59;;;;;;;;;;;21.40;99.90;;;;;;5080004;28;19967;-69
2021/07/08 11:23:27;;;;;;;;;;;21.30;99.90;;;;;;5078724;28;19940;-69
2021/07/08 11:25:54;;;;;;;;;;;21.40;99.90;;;;;;5079169;28;19935;-71
2021/07/08 11:28:29;;;;;;;;;;;21.40;99.90;;;;;;5078772;28;19939;-70
2021/07/08 11:31:03;;;;;;;;;;;21.40;99.90;;;;;;5079381;28;20002;-71
2021/07/08 11:33:31;;;;;;;;;;;21.20;99.90;;;;;;5096319;27;19935;-72
2021/07/08 11:36:09;;;;;;;;;;;21.10;99.90;;;;;;5076855;28;19981;-71
2021/07/08 11:38:38;;;;;;;;;;;21.10;99.90;;;;;;5079983;28;19931;-71
2021/07/08 11:41:06;;;;;;;;;;;21.10;99.90;;;;;;5077965;28;19978;-71
2021/07/08 11:43:33;;;;;;;;;;;20.90;99.90;;;;;;5081836;28;19932;-72
2021/07/08 11:46:05;;;;;;;;;;;20.90;99.90;;;;;;5077703;28;20017;-72
2021/07/08 11:48:33;;;;;;;;;;;20.90;99.90;;;;;;5080913;28;20031;-71
2021/07/08 11:51:01;;;;;;;;;;;20.70;99.90;;;;;;5078578;28;19932;-72
2021/07/08 11:53:28;;;;;;;;;;;20.70;99.90;;;;;;5080065;28;20014;-72
2021/07/08 11:55:56;;;;;;;;;;;20.60;99.90;;;;;;5078570;28;20019;-71
2021/07/08 11:58:25;;;;;;;;;;;20.40;99.90;;;;;;5080897;28;20886;-71
2021/07/08 12:00:55;;;;;;;;;;;20.20;99.90;;;;;;5078769;28;20010;-69
2021/07/08 12:03:25;;;;;;;;;;;20.10;99.90;;;;;;5084222;28;20044;-71
2021/07/08 12:06:00;;;;;;;;;;;20.00;99.90;;;;;;5078541;28;19971;-71
2021/07/08 12:08:36;;;;;;;;;;;20.00;99.90;;;;;;5078659;28;19932;-71
2021/07/08 12:11:11;;;;;;;;;;;20.10;99.90;;;;;;5081571;28;19986;-72
2021/07/08 12:13:44;;;;;;;;;;;20.10;99.90;;;;;;5078689;28;20046;-71
2021/07/08 12:16:11;;;;;;;;;;;20.40;99.90;;;;;;5079311;28;19931;-71
2021/07/08 12:18:51;;;;;;;;;;;20.40;99.90;;;;;;5078141;28;20587;-72
2021/07/08 12:21:19;;;;;;;;;;;20.50;99.90;;;;;;5079121;28;20017;-70
2021/07/08 12:23:46;;;;;;;;;;;20.40;99.90;;;;;;5091034;28;20026;-70
2021/07/08 12:26:33;;;;;;;;;;;20.40;99.90;;;;;;5088533;28;19993;-73
2021/07/08 12:29:09;;;;;;;;;;;20.40;99.90;;;;;;5089047;28;19959;-74
2021/07/08 12:31:45;;;;;;;;;;;20.70;99.90;;;;;;5093232;28;19964;-72
2021/07/08 12:34:16;;;;;;;;;;;20.70;99.90;;;;;;5088738;28;19927;-73
2021/07/08 12:36:43;;;;;;;;;;;20.60;99.90;;;;;;5091495;28;19969;-75
2021/07/08 12:39:09;;;;;;;;;;;20.40;99.90;;;;;;5089880;28;19932;-74
2021/07/08 12:41:36;;;;;;;;;;;20.50;99.90;;;;;;5089394;28;20055;-76
2021/07/08 12:44:10;;;;;;;;;;;20.80;99.90;;;;;;5090531;28;19963;-75
2021/07/08 12:46:37;;;;;;;;;;;21.20;99.90;;;;;;5089468;28;19932;-77
2021/07/08 12:49:05;;;;;;;;;;;21.20;99.90;;;;;;5089625;28;19951;-81
2021/07/08 12:51:36;;;;;;;;;;;21.20;99.90;;;;;;5089824;28;20018;-72
2021/07/08 12:54:03;;;;;;;;;;;21.40;99.90;;;;;;5090565;28;20355;-76
2021/07/08 12:56:30;;;;;;;;;;;21.50;99.90;;;;;;5086119;28;20015;-75
2021/07/08 12:59:00;;;;;;;;;;;21.50;99.90;;;;;;5089903;28;20015;-78
2021/07/08 13:01:29;;;;;;;;;;;21.70;99.90;;;;;;5088880;28;20386;-73
2021/07/08 13:03:56;;;;;;;;;;;21.50;99.90;;;;;;5090791;28;19939;-74
2021/07/08 13:06:24;;;;;;;;;;;21.40;99.90;;;;;;5087746;28;20015;-73
2021/07/08 13:09:07;;;;;;;;;;;21.60;99.90;;;;;;5085954;28;20036;-72
2021/07/08 13:11:35;;;;;;;;;;;21.80;99.90;;;;;;5084448;28;20398;-72
2021/07/08 13:14:18;;;;;;;;;;;21.90;99.90;;;;;;5087374;28;20435;-73
2021/07/08 13:17:01;;;;;;;;;;;22.00;99.90;;;;;;5087687;28;19955;-73
2021/07/08 13:19:28;;;;;;;;;;;22.00;99.90;;;;;;5090396;28;19998;-74
2021/07/08 13:21:55;;;;;;;;;;;21.90;99.90;;;;;;5086866;28;20036;-73
2021/07/08 13:24:25;;;;;;;;;;;21.80;99.90;;;;;;5087264;28;19931;-73
2021/07/08 13:26:52;;;;;;;;;;;21.70;99.90;;;;;;5088394;28;19931;-75
2021/07/08 13:29:23;;;;;;;;;;;21.50;99.90;;;;;;5087346;28;19977;-75
2021/07/08 13:31:49;;;;;;;;;;;21.50;99.90;;;;;;5089911;28;19936;-74
2021/07/08 13:34:23;;;;;;;;;;;21.40;99.90;;;;;;5087157;28;20306;-74
2021/07/08 13:36:52;;;;;;;;;;;21.30;99.90;;;;;;5089297;28;19986;-75
2021/07/08 13:39:24;;;;;;;;;;;21.20;99.90;;;;;;5087338;28;19986;-75
2021/07/08 13:42:02;;;;;;;;;;;21.20;99.90;;;;;;5085263;28;20030;-75
2021/07/08 13:44:30;;;;;;;;;;;21.20;99.90;;;;;;5088267;28;20059;-74
2021/07/08 13:46:58;;;;;;;;;;;21.30;99.90;;;;;;5088946;28;20005;-73
2021/07/08 13:49:28;;;;;;;;;;;21.50;99.90;;;;;;5088713;28;20015;-74
2021/07/08 13:51:59;;;;;;;;;;;21.60;99.90;;;;;;5090203;28;20510;-73
2021/07/08 13:54:32;;;;;;;;;;;21.70;99.90;;;;;;5089048;28;19938;-73
2021/07/08 13:56:59;;;;;;;;;;;21.80;99.90;;;;;;5087522;28;20328;-74
2021/07/08 13:59:26;;;;;;;;;;;22.00;99.90;;;;;;5088629;28;19928;-74
2021/07/08 14:01:53;;;;;;;;;;;22.20;99.90;;;;;;5089665;28;20332;-74
2021/07/08 14:04:19;;;;;;;;;;;22.30;99.90;;;;;;5090522;28;20382;-74
2021/07/08 14:06:50;;;;;;;;;;;22.40;99.90;;;;;;5085990;28;19928;-74
2021/07/08 14:09:19;;;;;;;;;;;22.30;99.90;;;;;;5087921;28;19977;-75
2021/07/08 14:11:46;;;;;;;;;;;22.30;99.90;;;;;;5086516;28;20040;-75
2021/07/08 14:14:13;;;;;;;;;;;22.20;99.90;;;;;;5088743;28;20391;-74
2021/07/08 14:16:40;;;;;;;;;;;22.10;99.90;;;;;;5087596;28;19936;-73
2021/07/08 14:19:07;;;;;;;;;;;22.00;99.90;;;;;;5087031;28;19986;-74
2021/07/08 14:21:34;;;;;;;;;;;22.00;99.90;;;;;;5088868;28;20403;-74
2021/07/08 14:24:01;;;;;;;;;;;22.00;99.90;;;;;;5086750;28;19932;-75
2021/07/08 14:26:28;;;;;;;;;;;21.90;99.90;;;;;;5086426;28;19959;-74
2021/07/08 14:28:54;;;;;;;;;;;21.90;99.90;;;;;;5089736;28;19967;-74
2021/07/08 14:31:21;;;;;;;;;;;21.80;99.90;;;;;;5086539;28;20645;-74
2021/07/08 14:33:48;;;;;;;;;;;21.90;99.90;;;;;;5120876;27;20042;-73
2021/07/08 14:36:15;;;;;;;;;;;21.90;99.90;;;;;;5084355;28;20018;-73
2021/07/08 14:38:43;;;;;;;;;;;21.80;99.90;;;;;;5088151;28;20046;-73